Time;durP1;ratioP1;P1;durP2;ratioP2;P2;SDS_P1;SDS_P2;PMS_P1;PMS_P2;Temp;Humidity;BMP_temperature;BMP_pressure;BME280_temperature;BME280_humidity;BME280_pressure;Samples;Min_cycle;Max_cycle;Signal;HPM_P1;HPM_P2
2024/01/30 00:04:14;;;;;;;27.80;15.23;;;;;;;;;;5057186;28;20217;-68
2024/01/30 00:06:41;;;;;;;31.83;15.70;;;;;;;;;;5056845;28;20461;-68
2024/01/30 00:09:24;;;;;;;30.10;14.53;;;;;;;;;;5056606;28;20213;-68
2024/01/30 00:11:51;;;;;;;29.43;15.03;;;;;;;;;;5056758;28;20179;-68
2024/01/30 00:14:18;;;;;;;29.90;15.40;;;;;;;;;;5057143;28;20167;-68
2024/01/30 00:16:45;;;;;;;28.53;14.97;;;;;;;;;;5056762;28;20453;-68
2024/01/30 00:19:11;;;;;;;36.80;15.53;;;;;;;;;;5057030;28;20564;-68
2024/01/30 00:21:38;;;;;;;31.43;15.97;;;;;;;;;;5057199;28;20413;-68
2024/01/30 00:24:05;;;;;;;27.80;13.67;;;;;;;;;;5055830;28;20421;-68
2024/01/30 00:26:32;;;;;;;29.27;15.43;;;;;;;;;;5056668;28;20421;-68
2024/01/30 00:28:58;;;;;;;24.37;14.13;;;;;;;;;;5046893;28;20275;-68
2024/01/30 00:31:25;;;;;;;28.53;14.43;;;;;;;;;;5036476;28;20450;-68
2024/01/30 00:33:52;;;;;;;30.83;16.23;;;;;;;;;;5036679;28;20433;-68
2024/01/30 00:36:19;;;;;;;31.27;15.97;;;;;;;;;;5036848;28;20505;-68
2024/01/30 00:38:45;;;;;;;30.23;16.67;;;;;;;;;;5035028;28;20424;-68
2024/01/30 00:41:12;;;;;;;29.83;16.27;;;;;;;;;;5036458;28;20780;-68
2024/01/30 00:43:41;;;;;;;30.03;15.77;;;;;;;;;;5035135;28;20190;-68
2024/01/30 00:46:07;;;;;;;32.03;16.47;;;;;;;;;;5036648;28;20191;-68
2024/01/30 00:48:34;;;;;;;33.33;16.97;;;;;;;;;;5036233;28;20228;-68
2024/01/30 00:51:18;;;;;;;29.67;16.40;;;;;;;;;;5036243;28;20489;-68
2024/01/30 00:57:44;;;;;;;30.60;15.53;;;;;;;;;;5036165;28;20926;-68
2024/01/30 01:00:12;;;;;;;35.77;17.07;;;;;;;;;;5035980;28;20913;-68
2024/01/30 01:02:56;;;;;;;33.40;17.40;;;;;;;;;;5034959;28;20414;-68
2024/01/30 01:05:23;;;;;;;29.90;17.13;;;;;;;;;;5035010;28;20426;-68
2024/01/30 01:07:49;;;;;;;35.47;18.60;;;;;;;;;;5035909;28;20925;-68
2024/01/30 01:10:17;;;;;;;34.73;18.53;;;;;;;;;;5036137;28;20433;-68
2024/01/30 01:52:36;;;;;;;41.23;18.30;;;;;;;;;;5038393;28;20617;-68
2024/01/30 01:59:06;;;;;;;34.93;17.97;;;;;;;;;;5055259;28;20469;-68
2024/01/30 02:01:33;;;;;;;37.27;19.03;;;;;;;;;;5055268;28;20405;-68
2024/01/30 02:04:00;;;;;;;36.60;18.33;;;;;;;;;;5054186;28;20474;-68
2024/01/30 02:06:27;;;;;;;36.73;19.37;;;;;;;;;;5053746;28;20506;-68
2024/01/30 02:08:54;;;;;;;35.77;17.97;;;;;;;;;;5055019;28;20413;-68
2024/01/30 02:11:22;;;;;;;36.77;19.57;;;;;;;;;;5054632;28;20424;-68
2024/01/30 02:13:48;;;;;;;38.00;18.20;;;;;;;;;;5052501;28;20461;-68
2024/01/30 02:16:15;;;;;;;35.00;17.60;;;;;;;;;;5036860;28;20413;-68
2024/01/30 02:18:45;;;;;;;36.27;18.57;;;;;;;;;;5055079;28;20427;-68
2024/01/30 02:21:12;;;;;;;35.53;17.30;;;;;;;;;;5053982;28;20432;-68
2024/01/30 02:23:38;;;;;;;36.80;18.40;;;;;;;;;;5055284;28;20429;-68
2024/01/30 02:26:22;;;;;;;40.20;18.83;;;;;;;;;;5054352;28;20382;-68
2024/01/30 02:28:49;;;;;;;35.47;18.33;;;;;;;;;;5054617;28;20919;-68
2024/01/30 02:31:15;;;;;;;34.43;17.13;;;;;;;;;;5045228;28;20434;-68
2024/01/30 02:33:42;;;;;;;35.10;17.43;;;;;;;;;;5034222;28;20966;-68
2024/01/30 02:36:09;;;;;;;34.90;18.77;;;;;;;;;;5036721;28;21010;-68
2024/01/30 02:39:12;;;;;;;32.63;17.07;;;;;;;;;;5033869;28;20425;-68
2024/01/30 02:41:39;;;;;;;35.77;18.13;;;;;;;;;;5045187;28;20549;-68
2024/01/30 02:44:23;;;;;;;37.43;18.43;;;;;;;;;;5032615;28;20501;-68
2024/01/30 02:46:49;;;;;;;35.23;18.13;;;;;;;;;;5032049;28;20938;-68
2024/01/30 02:49:16;;;;;;;33.90;18.27;;;;;;;;;;5033665;28;20430;-66
2024/01/30 02:52:12;;;;;;;33.17;17.47;;;;;;;;;;5031551;28;20734;-68
2024/01/30 02:58:39;;;;;;;30.03;16.83;;;;;;;;;;5034021;28;20425;-68
2024/01/30 03:01:24;;;;;;;29.47;16.87;;;;;;;;;;5034179;28;20944;-66
2024/01/30 03:03:51;;;;;;;31.07;16.83;;;;;;;;;;5033020;28;20461;-65
2024/01/30 03:06:20;;;;;;;33.77;17.13;;;;;;;;;;5031770;28;20430;-68
2024/01/30 03:08:46;;;;;;;35.07;16.30;;;;;;;;;;5034158;28;20414;-66
2024/01/30 03:11:13;;;;;;;35.30;18.13;;;;;;;;;;5033926;28;20430;-66
2024/01/30 03:13:40;;;;;;;34.37;18.13;;;;;;;;;;5034133;28;20758;-66
2024/01/30 03:16:08;;;;;;;30.00;16.97;;;;;;;;;;5051259;28;20422;-66
2024/01/30 03:18:34;;;;;;;33.83;17.40;;;;;;;;;;5036031;28;20795;-66
2024/01/30 03:21:01;;;;;;;33.90;16.70;;;;;;;;;;5052630;28;20487;-66
2024/01/30 03:23:28;;;;;;;33.97;18.33;;;;;;;;;;5054179;28;20451;-66
2024/01/30 03:25:54;;;;;;;38.67;19.73;;;;;;;;;;5053424;28;20476;-67
2024/01/30 03:28:38;;;;;;;37.60;19.23;;;;;;;;;;5053783;28;20408;-66
2024/01/30 03:31:05;;;;;;;34.40;18.30;;;;;;;;;;5038920;28;20428;-66
2024/01/30 03:33:31;;;;;;;36.00;18.13;;;;;;;;;;5033631;28;20896;-66
2024/01/30 03:36:02;;;;;;;34.67;17.37;;;;;;;;;;5033915;28;20478;-70
2024/01/30 03:38:29;;;;;;;38.57;18.97;;;;;;;;;;5032915;28;20462;-70
2024/01/30 03:40:55;;;;;;;37.80;18.77;;;;;;;;;;5033161;28;20501;-68
2024/01/30 03:43:22;;;;;;;35.10;18.47;;;;;;;;;;5033953;28;20428;-68
2024/01/30 03:46:13;;;;;;;35.37;17.70;;;;;;;;;;5032275;28;20745;-67
2024/01/30 03:48:40;;;;;;;33.57;17.53;;;;;;;;;;5031661;28;20808;-67
2024/01/30 03:51:07;;;;;;;34.30;17.90;;;;;;;;;;5031410;28;20448;-67
2024/01/30 03:53:34;;;;;;;32.67;17.40;;;;;;;;;;5046728;28;20632;-70
2024/01/30 03:56:43;;;;;;;34.53;18.33;;;;;;;;;;5046956;28;20495;-68
2024/01/30 03:59:10;;;;;;;35.70;17.33;;;;;;;;;;5047929;28;20438;-68
2024/01/30 04:01:54;;;;;;;39.07;18.77;;;;;;;;;;5048009;28;20457;-72
2024/01/30 04:04:21;;;;;;;34.67;18.47;;;;;;;;;;5000493;28;20919;-68
2024/01/30 04:13:51;;;;;;;31.27;16.97;;;;;;;;;;5023170;28;21020;-68
2024/01/30 04:19:36;;;;;;;33.43;18.83;;;;;;;;;;5043080;28;20472;-68
2024/01/30 04:26:03;;;;;;;36.93;17.93;;;;;;;;;;5043520;28;20868;-67
2024/01/30 04:28:30;;;;;;;37.20;17.80;;;;;;;;;;5042559;28;20496;-69
2024/01/30 04:30:56;;;;;;;33.97;18.53;;;;;;;;;;5039193;28;20980;-69
2024/01/30 04:33:23;;;;;;;33.67;18.17;;;;;;;;;;5024948;28;20442;-67
2024/01/30 04:36:20;;;;;;;34.37;18.27;;;;;;;;;;5023367;28;20792;-67
2024/01/30 04:38:47;;;;;;;38.17;18.13;;;;;;;;;;5047327;28;20551;-69
2024/01/30 04:45:14;;;;;;;32.60;17.67;;;;;;;;;;5030215;28;20424;-70
2024/01/30 04:47:41;;;;;;;39.70;19.33;;;;;;;;;;5024603;28;20430;-69
2024/01/30 04:50:08;;;;;;;39.87;20.73;;;;;;;;;;5026425;28;20522;-69
2024/01/30 04:59:47;;;;;;;50.17;23.23;;;;;;;;;;5014060;28;20434;-71
2024/01/30 05:02:19;;;;;;;65.93;26.40;;;;;;;;;;5040169;28;20431;-69
2024/01/30 05:04:49;;;;;;;89.30;31.97;;;;;;;;;;5032863;28;20455;-71
2024/01/30 05:07:15;;;;;;;60.90;25.47;;;;;;;;;;5024714;28;20427;-69
2024/01/30 05:09:42;;;;;;;53.70;23.23;;;;;;;;;;5046702;28;20433;-68
2024/01/30 05:12:34;;;;;;;49.23;21.57;;;;;;;;;;5029982;28;20527;-69
2024/01/30 05:18:17;;;;;;;53.23;23.60;;;;;;;;;;5041309;28;20472;-70
2024/01/30 05:20:45;;;;;;;56.00;24.07;;;;;;;;;;5036582;28;20497;-69
2024/01/30 05:23:12;;;;;;;54.00;24.13;;;;;;;;;;5040389;28;20429;-69
2024/01/30 05:25:44;;;;;;;48.10;23.37;;;;;;;;;;5034567;28;20441;-69
2024/01/30 05:28:11;;;;;;;44.83;21.80;;;;;;;;;;5024635;28;20441;-68
2024/01/30 05:30:38;;;;;;;46.33;21.33;;;;;;;;;;5030064;28;20525;-68
2024/01/30 05:33:04;;;;;;;40.90;21.80;;;;;;;;;;5038515;28;21196;-68
2024/01/30 05:35:31;;;;;;;41.17;20.40;;;;;;;;;;5032349;28;20442;-69
2024/01/30 05:37:58;;;;;;;41.43;20.10;;;;;;;;;;5023603;28;20614;-69
2024/01/30 05:40:24;;;;;;;38.90;20.03;;;;;;;;;;5026328;28;20436;-69
2024/01/30 05:42:51;;;;;;;40.73;20.10;;;;;;;;;;5023699;28;20851;-69
2024/01/30 05:45:23;;;;;;;40.60;19.30;;;;;;;;;;5030372;28;20430;-70
2024/01/30 05:47:49;;;;;;;40.17;19.50;;;;;;;;;;5022548;28;22242;-69
2024/01/30 05:50:16;;;;;;;36.57;18.90;;;;;;;;;;5022306;28;20857;-70
2024/01/30 05:52:45;;;;;;;38.13;19.50;;;;;;;;;;5005505;28;20438;-69
2024/01/30 05:55:12;;;;;;;37.27;19.23;;;;;;;;;;5022366;28;20540;-68
2024/01/30 05:57:38;;;;;;;36.97;20.03;;;;;;;;;;5010460;28;20527;-69
2024/01/30 06:00:05;;;;;;;35.20;19.53;;;;;;;;;;4997085;28;20446;-70
2024/01/30 06:02:32;;;;;;;39.47;18.67;;;;;;;;;;5020724;28;20498;-70
2024/01/30 06:05:16;;;;;;;38.30;19.93;;;;;;;;;;5024630;28;20421;-70
2024/01/30 06:07:42;;;;;;;39.97;19.40;;;;;;;;;;5030497;28;20441;-69
2024/01/30 06:10:09;;;;;;;39.17;19.83;;;;;;;;;;5025351;28;20437;-69
2024/01/30 06:12:37;;;;;;;41.67;21.07;;;;;;;;;;5025133;28;20466;-69
2024/01/30 06:15:04;;;;;;;47.63;23.60;;;;;;;;;;5042478;28;20425;-69
2024/01/30 06:17:53;;;;;;;42.90;23.83;;;;;;;;;;5025470;28;20503;-70
2024/01/30 06:20:19;;;;;;;43.53;22.17;;;;;;;;;;5043055;28;20536;-69
2024/01/30 06:22:55;;;;;;;41.60;22.43;;;;;;;;;;5023005;28;20438;-69
2024/01/30 06:25:21;;;;;;;42.13;22.20;;;;;;;;;;5031527;28;20428;-68
2024/01/30 06:28:05;;;;;;;39.70;20.43;;;;;;;;;;5027798;28;20426;-70
2024/01/30 06:30:58;;;;;;;41.50;21.77;;;;;;;;;;5039069;28;20549;-69
2024/01/30 06:33:25;;;;;;;40.23;20.23;;;;;;;;;;5023493;28;20915;-70
2024/01/30 06:35:52;;;;;;;38.70;18.30;;;;;;;;;;5007385;28;20434;-69
2024/01/30 06:38:19;;;;;;;42.93;21.30;;;;;;;;;;5022558;28;20482;-68
2024/01/30 06:41:29;;;;;;;46.00;22.03;;;;;;;;;;5008793;28;20425;-69
2024/01/30 06:43:56;;;;;;;50.73;23.90;;;;;;;;;;5042632;28;20924;-68
2024/01/30 06:46:23;;;;;;;45.63;22.70;;;;;;;;;;5009747;28;20520;-68
2024/01/30 06:48:50;;;;;;;40.37;21.83;;;;;;;;;;5025734;28;20993;-69
2024/01/30 06:51:16;;;;;;;42.90;20.90;;;;;;;;;;5042079;28;20465;-71
2024/01/30 06:54:00;;;;;;;39.40;19.27;;;;;;;;;;5042565;28;20413;-69
2024/01/30 06:56:27;;;;;;;41.73;20.23;;;;;;;;;;5016500;28;20548;-68
2024/01/30 06:58:54;;;;;;;37.67;20.57;;;;;;;;;;5005923;28;20466;-68
2024/01/30 07:01:21;;;;;;;42.30;21.07;;;;;;;;;;5013408;28;20455;-69
2024/01/30 07:03:47;;;;;;;40.53;20.43;;;;;;;;;;5006810;28;20502;-68
2024/01/30 07:13:42;;;;;;;33.53;16.80;;;;;;;;;;5023703;28;20834;-69
2024/01/30 07:16:08;;;;;;;37.23;18.00;;;;;;;;;;5055853;28;20458;-72
2024/01/30 07:18:36;;;;;;;38.27;18.60;;;;;;;;;;5022112;28;20473;-68
2024/01/30 07:21:06;;;;;;;35.03;17.23;;;;;;;;;;5024333;28;20442;-70
2024/01/30 07:23:34;;;;;;;34.20;17.27;;;;;;;;;;5005669;28;20440;-70
2024/01/30 07:26:03;;;;;;;33.07;17.80;;;;;;;;;;5045966;28;20532;-69
2024/01/30 07:28:30;;;;;;;37.83;18.20;;;;;;;;;;5024074;28;20444;-70
2024/01/30 07:30:58;;;;;;;35.87;18.33;;;;;;;;;;5022850;28;20940;-70
2024/01/30 07:37:24;;;;;;;32.80;16.73;;;;;;;;;;5024560;28;20484;-70
2024/01/30 07:39:51;;;;;;;34.80;18.00;;;;;;;;;;5021756;28;20434;-70
2024/01/30 07:42:46;;;;;;;40.90;19.10;;;;;;;;;;5031461;28;21944;-71
2024/01/30 07:48:30;;;;;;;37.50;18.37;;;;;;;;;;5042043;28;20486;-70
2024/01/30 07:51:23;;;;;;;34.67;18.77;;;;;;;;;;5034016;28;20431;-70
2024/01/30 07:53:53;;;;;;;40.53;19.80;;;;;;;;;;5033744;28;20422;-70
2024/01/30 08:00:16;;;;;;;37.47;18.87;;;;;;;;;;5020346;28;20517;-70
2024/01/30 08:02:46;;;;;;;33.37;17.30;;;;;;;;;;5037573;28;20432;-70
2024/01/30 08:05:15;;;;;;;31.53;16.63;;;;;;;;;;5023946;28;20438;-70
2024/01/30 08:11:36;;;;;;;30.80;16.77;;;;;;;;;;5055965;28;20503;-70
2024/01/30 08:14:02;;;;;;;37.57;17.57;;;;;;;;;;5026268;28;20466;-70
2024/01/30 08:16:29;;;;;;;33.37;17.30;;;;;;;;;;5041354;28;20857;-69
2024/01/30 08:22:56;;;;;;;28.07;15.43;;;;;;;;;;5029535;28;20773;-69
2024/01/30 08:25:23;;;;;;;30.70;16.67;;;;;;;;;;5032669;28;20480;-71
2024/01/30 08:27:50;;;;;;;33.20;16.67;;;;;;;;;;5025923;28;20430;-71
2024/01/30 08:34:15;;;;;;;29.97;14.87;;;;;;;;;;5031860;28;20190;-69
2024/01/30 08:36:44;;;;;;;30.30;15.40;;;;;;;;;;5041248;28;20422;-68
2024/01/30 08:43:06;;;;;;;27.50;15.17;;;;;;;;;;5047263;28;20206;-69
2024/01/30 08:45:33;;;;;;;28.43;15.33;;;;;;;;;;5028929;28;20264;-69
2024/01/30 08:48:00;;;;;;;27.30;15.27;;;;;;;;;;5029272;28;20433;-69
2024/01/30 08:50:27;;;;;;;33.70;15.83;;;;;;;;;;5046680;28;20661;-70
2024/01/30 08:52:54;;;;;;;26.20;15.50;;;;;;;;;;5045549;28;20519;-69
2024/01/30 08:55:21;;;;;;;28.40;15.67;;;;;;;;;;5028782;28;20327;-71
2024/01/30 08:57:47;;;;;;;32.10;16.50;;;;;;;;;;5046029;28;20190;-69
2024/01/30 09:00:14;;;;;;;29.40;16.07;;;;;;;;;;5034211;28;20190;-69
2024/01/30 09:02:41;;;;;;;27.47;15.67;;;;;;;;;;5028085;28;20209;-71
2024/01/30 09:08:58;;;;;;;28.47;15.17;;;;;;;;;;5041675;28;20553;-71
2024/01/30 09:11:49;;;;;;;28.43;15.17;;;;;;;;;;5043262;28;20183;-71
2024/01/30 09:14:17;;;;;;;33.13;16.23;;;;;;;;;;5025355;28;20224;-72
2024/01/30 09:16:44;;;;;;;26.07;15.00;;;;;;;;;;5023258;28;20206;-70
2024/01/30 09:19:10;;;;;;;27.13;15.17;;;;;;;;;;5025491;28;20223;-71
2024/01/30 09:22:17;;;;;;;29.63;16.30;;;;;;;;;;5024592;28;20195;-72
2024/01/30 09:32:45;;;;;;;29.73;16.00;;;;;;;;;;5028634;28;20217;-71
2024/01/30 09:35:12;;;;;;;31.30;16.73;;;;;;;;;;5040885;28;20191;-71
2024/01/30 09:37:42;;;;;;;36.03;19.63;;;;;;;;;;5026755;28;20247;-70
2024/01/30 09:40:10;;;;;;;33.27;17.90;;;;;;;;;;5025803;28;20207;-70
2024/01/30 09:46:30;;;;;;;31.03;16.53;;;;;;;;;;5026217;28;20306;-70
2024/01/30 09:48:57;;;;;;;26.93;14.57;;;;;;;;;;5024489;28;20203;-73
2024/01/30 09:51:24;;;;;;;31.03;16.27;;;;;;;;;;5025351;28;20195;-71
2024/01/30 09:53:52;;;;;;;26.90;14.90;;;;;;;;;;5032128;28;20179;-70
2024/01/30 09:56:19;;;;;;;27.43;16.00;;;;;;;;;;5011119;28;20199;-71
2024/01/30 10:10:45;;;;;;;34.43;17.83;;;;;;;;;;5037202;28;20510;-70
2024/01/30 10:13:13;;;;;;;35.13;18.47;;;;;;;;;;5024058;28;20254;-69
2024/01/30 10:15:49;;;;;;;39.33;18.90;;;;;;;;;;5026041;28;20191;-68
2024/01/30 10:26:22;;;;;;;28.37;15.40;;;;;;;;;;5029261;28;20194;-68
2024/01/30 10:29:00;;;;;;;27.33;15.23;;;;;;;;;;4994990;28;20229;-69
2024/01/30 10:31:27;;;;;;;28.17;15.63;;;;;;;;;;5024664;28;20235;-68
2024/01/30 10:33:54;;;;;;;26.40;14.57;;;;;;;;;;5022777;28;20623;-68
2024/01/30 10:36:39;;;;;;;28.00;14.43;;;;;;;;;;5044510;28;20205;-72
2024/01/30 10:39:06;;;;;;;25.70;13.47;;;;;;;;;;5039837;28;20276;-73
2024/01/30 10:45:34;;;;;;;23.67;12.77;;;;;;;;;;5024481;28;20618;-70
2024/01/30 10:48:03;;;;;;;25.90;13.43;;;;;;;;;;5056123;28;20194;-68
2024/01/30 10:50:30;;;;;;;27.77;14.70;;;;;;;;;;5039146;28;20277;-69
2024/01/30 10:52:57;;;;;;;29.10;14.20;;;;;;;;;;5038513;28;20191;-70
2024/01/30 10:55:49;;;;;;;26.80;15.87;;;;;;;;;;5038304;28;20187;-69
2024/01/30 11:01:54;;;;;;;31.67;17.53;;;;;;;;;;5022087;28;20215;-70
2024/01/30 11:12:02;;;;;;;32.27;16.77;;;;;;;;;;5024775;28;20175;-68
2024/01/30 11:14:31;;;;;;;30.43;16.00;;;;;;;;;;5006802;28;20239;-70
2024/01/30 11:17:16;;;;;;;31.73;16.57;;;;;;;;;;5035657;28;20492;-68
2024/01/30 11:19:42;;;;;;;29.27;16.40;;;;;;;;;;5038222;28;20215;-69
2024/01/30 11:22:14;;;;;;;27.87;16.03;;;;;;;;;;5042442;28;20202;-69
2024/01/30 11:24:44;;;;;;;31.23;14.80;;;;;;;;;;5041408;28;20218;-70
2024/01/30 11:27:13;;;;;;;28.90;15.47;;;;;;;;;;5022195;28;20214;-71
2024/01/30 11:29:40;;;;;;;26.20;14.50;;;;;;;;;;5022594;28;20270;-70
2024/01/30 11:39:12;;;;;;;27.50;15.33;;;;;;;;;;5043754;28;20245;-70
2024/01/30 11:41:38;;;;;;;26.90;15.27;;;;;;;;;;5042661;28;20189;-69
2024/01/30 11:47:47;;;;;;;22.97;13.90;;;;;;;;;;5046928;28;20221;-69
2024/01/30 11:50:14;;;;;;;26.37;15.33;;;;;;;;;;5041507;28;20290;-70
2024/01/30 12:00:34;;;;;;;28.23;14.77;;;;;;;;;;5021670;28;20672;-68
2024/01/30 12:03:03;;;;;;;28.53;15.80;;;;;;;;;;5027368;28;20215;-68
2024/01/30 12:08:27;;;;;;;30.57;15.40;;;;;;;;;;5026993;28;20230;-67
2024/01/30 12:11:19;;;;;;;29.67;16.07;;;;;;;;;;5026378;28;21564;-70
2024/01/30 12:13:46;;;;;;;31.73;15.87;;;;;;;;;;5028630;28;20230;-70
2024/01/30 12:20:24;;;;;;;30.63;16.57;;;;;;;;;;5047004;28;20217;-67
2024/01/30 12:22:53;;;;;;;29.60;16.27;;;;;;;;;;5029270;28;20225;-68
2024/01/30 12:25:20;;;;;;;29.70;15.57;;;;;;;;;;5029401;28;20275;-68
2024/01/30 12:27:51;;;;;;;29.20;14.77;;;;;;;;;;5046286;28;20183;-67
2024/01/30 12:34:17;;;;;;;30.77;15.70;;;;;;;;;;5047684;28;20281;-67
2024/01/30 12:40:44;;;;;;;34.37;16.40;;;;;;;;;;5027307;28;20262;-68
2024/01/30 12:47:16;;;;;;;32.87;16.40;;;;;;;;;;5027891;28;20174;-68
2024/01/30 12:49:44;;;;;;;34.10;17.13;;;;;;;;;;5027864;28;20265;-67
2024/01/30 12:52:11;;;;;;;29.53;16.43;;;;;;;;;;5042848;28;20206;-67
2024/01/30 12:54:38;;;;;;;31.93;17.37;;;;;;;;;;5039067;28;20188;-68
2024/01/30 12:57:06;;;;;;;30.10;17.00;;;;;;;;;;5040415;28;20192;-67
2024/01/30 13:03:50;;;;;;;29.93;16.73;;;;;;;;;;5027086;28;20217;-69
2024/01/30 13:14:19;;;;;;;31.83;17.47;;;;;;;;;;5030121;28;20234;-67
2024/01/30 13:16:46;;;;;;;30.67;17.83;;;;;;;;;;5025948;28;20180;-68
2024/01/30 13:19:15;;;;;;;33.07;18.57;;;;;;;;;;5025432;28;20215;-68
2024/01/30 13:21:43;;;;;;;35.47;18.60;;;;;;;;;;5025139;28;20192;-68
2024/01/30 13:28:06;;;;;;;34.80;16.77;;;;;;;;;;5025439;28;20214;-68
2024/01/30 13:30:33;;;;;;;30.53;16.60;;;;;;;;;;5024791;28;20245;-68
2024/01/30 13:37:00;;;;;;;33.40;16.10;;;;;;;;;;5045206;28;20256;-69
2024/01/30 13:39:29;;;;;;;38.30;15.90;;;;;;;;;;5038242;28;20229;-69
2024/01/30 13:42:02;;;;;;;36.77;16.20;;;;;;;;;;5039769;28;20238;-69
2024/01/30 13:44:29;;;;;;;32.00;15.50;;;;;;;;;;5024305;28;20203;-68
2024/01/30 13:46:56;;;;;;;32.50;15.37;;;;;;;;;;5026593;28;20270;-68
2024/01/30 13:49:23;;;;;;;45.93;15.77;;;;;;;;;;5024927;28;20195;-69
2024/01/30 13:51:51;;;;;;;46.37;17.03;;;;;;;;;;5039370;28;20191;-69
2024/01/30 13:54:20;;;;;;;35.30;15.43;;;;;;;;;;5039236;28;20191;-67
2024/01/30 14:00:52;;;;;;;23.27;13.13;;;;;;;;;;5020124;28;20237;-68
2024/01/30 14:03:23;;;;;;;25.23;14.70;;;;;;;;;;5031712;28;20209;-67
2024/01/30 14:09:22;;;;;;;27.03;15.27;;;;;;;;;;5029118;28;20209;-70
2024/01/30 14:11:49;;;;;;;27.77;14.80;;;;;;;;;;5027142;28;20774;-69
2024/01/30 14:14:16;;;;;;;26.87;15.70;;;;;;;;;;5025864;28;20238;-69
2024/01/30 14:16:46;;;;;;;27.80;15.20;;;;;;;;;;5040124;28;20278;-71
2024/01/30 14:19:13;;;;;;;28.00;15.80;;;;;;;;;;5029139;28;20206;-68
2024/01/30 14:21:40;;;;;;;28.30;16.50;;;;;;;;;;5065482;28;20194;-67
2024/01/30 14:24:07;;;;;;;27.67;17.23;;;;;;;;;;5009892;28;20199;-67
2024/01/30 14:26:34;;;;;;;32.33;17.27;;;;;;;;;;5037920;28;20279;-67
2024/01/30 14:32:56;;;;;;;27.57;15.57;;;;;;;;;;5033441;28;20245;-67
2024/01/30 14:39:23;;;;;;;28.37;15.77;;;;;;;;;;5052844;28;20217;-68
2024/01/30 14:41:50;;;;;;;31.70;15.70;;;;;;;;;;5030710;28;20213;-67
2024/01/30 14:44:22;;;;;;;28.20;15.23;;;;;;;;;;5034657;28;20310;-67
2024/01/30 14:50:18;;;;;;;40.07;17.07;;;;;;;;;;5053040;28;20261;-67
2024/01/30 14:52:44;;;;;;;32.07;17.40;;;;;;;;;;5054746;28;20278;-67
2024/01/30 14:55:11;;;;;;;35.87;19.13;;;;;;;;;;5053602;28;20707;-67
2024/01/30 14:57:38;;;;;;;33.90;18.53;;;;;;;;;;5052798;28;20246;-67
2024/01/30 15:00:05;;;;;;;34.97;18.87;;;;;;;;;;5052774;28;20261;-67
2024/01/30 15:02:32;;;;;;;40.50;19.37;;;;;;;;;;5054402;28;20277;-67
2024/01/30 15:04:59;;;;;;;36.57;19.33;;;;;;;;;;5053547;28;20618;-68
2024/01/30 15:07:27;;;;;;;38.40;20.63;;;;;;;;;;5069760;28;20201;-67
2024/01/30 15:13:58;;;;;;;43.87;21.07;;;;;;;;;;5054345;28;20221;-67
2024/01/30 15:16:25;;;;;;;38.30;20.70;;;;;;;;;;5053844;28;20193;-67
2024/01/30 15:18:51;;;;;;;38.10;20.77;;;;;;;;;;5053912;28;20187;-67
2024/01/30 15:21:22;;;;;;;38.87;19.47;;;;;;;;;;5053776;28;20214;-67
2024/01/30 15:23:51;;;;;;;38.03;20.67;;;;;;;;;;5052765;28;20282;-67
2024/01/30 15:26:18;;;;;;;38.70;20.20;;;;;;;;;;5036235;28;20195;-67
2024/01/30 15:28:45;;;;;;;40.47;20.87;;;;;;;;;;5051606;28;20187;-67
2024/01/30 15:31:53;;;;;;;45.93;22.13;;;;;;;;;;5051112;28;20179;-67
2024/01/30 15:34:20;;;;;;;40.63;20.67;;;;;;;;;;5031656;28;20195;-67
2024/01/30 15:36:54;;;;;;;38.40;20.10;;;;;;;;;;5031524;28;20426;-67
2024/01/30 15:39:20;;;;;;;39.23;21.10;;;;;;;;;;5047445;28;20654;-67
2024/01/30 15:45:48;;;;;;;32.93;18.53;;;;;;;;;;5033566;28;20155;-66
2024/01/30 15:48:15;;;;;;;40.33;19.47;;;;;;;;;;5030995;28;20430;-67
2024/01/30 15:50:42;;;;;;;34.00;19.50;;;;;;;;;;5028423;28;21017;-67
2024/01/30 15:53:08;;;;;;;35.67;19.57;;;;;;;;;;5026533;28;20291;-68
2024/01/30 15:55:35;;;;;;;28.33;14.77;;;;;;;;;;5044799;28;20191;-67
2024/01/30 16:02:03;;;;;;;38.53;19.93;;;;;;;;;;5024501;28;20601;-67
2024/01/30 16:04:30;;;;;;;38.67;19.30;;;;;;;;;;5033451;28;20195;-67
2024/01/30 16:06:56;;;;;;;41.90;20.13;;;;;;;;;;5039212;28;20278;-67
2024/01/30 16:09:23;;;;;;;35.97;19.07;;;;;;;;;;5023862;28;20183;-67
2024/01/30 16:11:50;;;;;;;34.93;19.27;;;;;;;;;;5042286;28;20179;-67
2024/01/30 16:14:17;;;;;;;35.40;17.90;;;;;;;;;;5025107;28;20239;-67
2024/01/30 16:16:44;;;;;;;38.10;20.27;;;;;;;;;;5044199;28;20208;-67
2024/01/30 16:19:10;;;;;;;38.70;18.80;;;;;;;;;;5009877;28;20430;-67
2024/01/30 16:26:17;;;;;;;35.17;19.00;;;;;;;;;;5040915;28;20201;-67
2024/01/30 16:28:44;;;;;;;34.00;19.13;;;;;;;;;;5042020;28;20302;-68
2024/01/30 16:31:11;;;;;;;36.63;19.07;;;;;;;;;;5021592;28;20221;-69
2024/01/30 16:33:38;;;;;;;37.40;20.63;;;;;;;;;;5040137;28;20194;-68
2024/01/30 16:36:05;;;;;;;36.63;20.40;;;;;;;;;;5041999;28;20188;-67
2024/01/30 16:38:31;;;;;;;38.67;21.53;;;;;;;;;;5026343;28;20348;-67
2024/01/30 16:40:58;;;;;;;37.60;20.57;;;;;;;;;;5027648;28;20226;-67
2024/01/30 16:47:24;;;;;;;38.17;19.30;;;;;;;;;;5027011;28;20310;-68
2024/01/30 16:49:51;;;;;;;37.20;16.27;;;;;;;;;;5015696;28;20915;-68
2024/01/30 16:52:19;;;;;;;33.27;19.30;;;;;;;;;;5058708;28;20426;-68
2024/01/30 16:54:49;;;;;;;36.70;19.50;;;;;;;;;;5027207;28;20433;-69
2024/01/30 16:57:16;;;;;;;40.13;20.77;;;;;;;;;;5027114;28;20502;-68
2024/01/30 17:00:25;;;;;;;37.37;16.97;;;;;;;;;;5059354;28;20491;-68
2024/01/30 17:02:53;;;;;;;36.07;16.50;;;;;;;;;;5052179;28;20429;-68
2024/01/30 17:05:20;;;;;;;23.07;13.13;;;;;;;;;;5023343;28;21825;-68
2024/01/30 17:07:53;;;;;;;38.57;19.80;;;;;;;;;;5032532;28;20438;-69
2024/01/30 17:10:20;;;;;;;39.77;19.33;;;;;;;;;;5041459;28;20434;-68
2024/01/30 17:12:47;;;;;;;43.87;20.83;;;;;;;;;;5042241;28;20539;-68
2024/01/30 17:15:14;;;;;;;45.77;23.23;;;;;;;;;;5028472;28;20418;-68
2024/01/30 17:17:55;;;;;;;46.73;22.93;;;;;;;;;;5027500;28;20260;-68
2024/01/30 17:20:22;;;;;;;39.53;19.90;;;;;;;;;;5044972;28;20961;-67
2024/01/30 17:26:06;;;;;;;31.07;15.67;;;;;;;;;;5046858;28;20426;-67
2024/01/30 17:28:33;;;;;;;31.07;15.47;;;;;;;;;;5016983;28;20434;-68
2024/01/30 17:31:01;;;;;;;32.93;17.43;;;;;;;;;;5043184;28;20766;-68
2024/01/30 17:33:27;;;;;;;49.47;23.83;;;;;;;;;;5025405;28;20440;-67
2024/01/30 17:35:54;;;;;;;45.07;21.87;;;;;;;;;;5024736;28;20434;-67
2024/01/30 17:38:21;;;;;;;47.97;21.70;;;;;;;;;;5025891;28;20454;-67
2024/01/30 17:40:50;;;;;;;39.13;17.40;;;;;;;;;;5026234;28;20975;-67
2024/01/30 17:43:31;;;;;;;45.40;22.33;;;;;;;;;;5030129;28;20912;-67
2024/01/30 17:49:52;;;;;;;48.57;23.80;;;;;;;;;;5013847;28;20508;-67
2024/01/30 17:52:19;;;;;;;49.47;24.50;;;;;;;;;;5031093;28;20932;-67
2024/01/30 17:54:45;;;;;;;52.43;24.10;;;;;;;;;;5024425;28;20919;-67
2024/01/30 17:57:12;;;;;;;47.53;24.07;;;;;;;;;;5023727;28;20430;-67
2024/01/30 18:11:30;;;;;;;36.20;17.70;;;;;;;;;;5032627;28;20558;-66
2024/01/30 18:13:59;;;;;;;45.40;24.50;;;;;;;;;;5060276;28;20469;-67
2024/01/30 18:23:26;;;;;;;38.70;20.60;;;;;;;;;;5025238;28;20495;-66
2024/01/30 18:25:59;;;;;;;34.50;18.03;;;;;;;;;;5040389;28;20464;-67
2024/01/30 18:28:26;;;;;;;25.90;13.07;;;;;;;;;;5007709;28;20435;-67
2024/01/30 18:30:54;;;;;;;41.00;21.07;;;;;;;;;;5040058;28;21242;-66
2024/01/30 18:33:20;;;;;;;38.33;20.70;;;;;;;;;;5043518;28;20430;-67
2024/01/30 18:35:48;;;;;;;37.90;20.67;;;;;;;;;;5031564;28;20500;-68
2024/01/30 18:38:33;;;;;;;39.57;20.20;;;;;;;;;;5040126;28;20203;-68
2024/01/30 18:41:00;;;;;;;39.57;20.83;;;;;;;;;;5014149;28;20480;-66
2024/01/30 18:43:44;;;;;;;42.40;20.90;;;;;;;;;;5032992;28;20463;-66
2024/01/30 18:46:12;;;;;;;38.57;21.57;;;;;;;;;;5038600;28;20439;-66
2024/01/30 18:48:40;;;;;;;42.23;22.17;;;;;;;;;;5046940;28;20252;-68
2024/01/30 18:51:33;;;;;;;37.90;20.67;;;;;;;;;;5030394;28;20465;-68
2024/01/30 18:54:00;;;;;;;39.17;19.47;;;;;;;;;;5034907;28;20397;-66
2024/01/30 18:56:28;;;;;;;39.60;21.50;;;;;;;;;;5033395;28;20533;-66
2024/01/30 18:58:56;;;;;;;37.37;21.73;;;;;;;;;;5033060;28;20269;-66
2024/01/30 19:05:29;;;;;;;42.17;21.70;;;;;;;;;;5052003;28;20424;-68
2024/01/30 19:15:21;;;;;;;38.20;19.13;;;;;;;;;;5041068;28;20491;-67
2024/01/30 19:17:48;;;;;;;38.10;20.40;;;;;;;;;;5040363;28;20425;-67
2024/01/30 19:20:15;;;;;;;36.40;21.00;;;;;;;;;;5035194;28;20546;-68
2024/01/30 19:22:43;;;;;;;36.87;20.70;;;;;;;;;;5037328;28;20468;-68
2024/01/30 19:25:10;;;;;;;38.00;20.10;;;;;;;;;;5023464;28;20433;-69
2024/01/30 19:27:36;;;;;;;42.17;21.03;;;;;;;;;;5023830;28;21723;-68
2024/01/30 19:34:05;;;;;;;37.90;20.10;;;;;;;;;;5033357;28;20460;-69
2024/01/30 19:36:35;;;;;;;34.83;19.73;;;;;;;;;;5035675;28;20435;-68
2024/01/30 19:39:13;;;;;;;40.27;20.97;;;;;;;;;;5027722;28;20441;-67